createdAt,value
2022-08-17T02:37:22.316Z,38.75
2022-08-17T02:42:29.865Z,39.21
2022-08-17T02:47:33.440Z,39.77
2022-08-17T02:52:57.309Z,40.37
2022-08-17T02:58:04.630Z,40.21
2022-08-17T03:03:09.519Z,40.48
2022-08-17T03:19:42.244Z,41.67
2022-08-17T03:24:46.760Z,42.12
2022-08-17T03:29:51.468Z,42.56
2022-08-17T03:35:00.943Z,43.96
2022-08-17T03:40:07.237Z,43.71
2022-08-17T03:45:15.585Z,44.07
2022-08-17T03:50:21.324Z,44.39
2022-08-17T03:55:35.780Z,44.82
2022-08-17T04:00:40.135Z,44.98
2022-08-17T04:05:45.561Z,46.04
2022-08-17T04:39:46.355Z,48.34
2022-08-17T04:44:49.996Z,48.87
2022-08-17T04:49:53.589Z,49.35
2022-08-17T04:54:58.804Z,50.14
2022-08-17T05:00:02.603Z,50.69
2022-08-17T05:05:07.508Z,50.92
2022-08-17T05:10:12.971Z,51.58
2022-08-17T05:15:16.624Z,51.47
2022-08-17T05:20:20.247Z,51.69
2022-08-17T05:25:28.717Z,53.10
2022-08-17T05:30:35.772Z,52.47
2022-08-17T05:35:42.334Z,52.22
2022-08-17T05:40:48.463Z,53.17
2022-08-17T05:46:01.134Z,53.12
2022-08-17T05:51:22.664Z,54.08
2022-08-17T05:56:47.833Z,54.61
2022-08-17T06:02:05.403Z,54.45
2022-08-17T06:07:15.687Z,54.97
2022-08-17T06:12:38.966Z,54.97
2022-08-17T06:17:44.019Z,54.41
2022-08-17T06:22:50.351Z,54.54
2022-08-17T06:28:00.017Z,54.75
2022-08-17T06:33:08.308Z,54.96
2022-08-17T06:38:38.518Z,54.62
2022-08-17T06:43:56.171Z,54.20
2022-08-17T06:49:12.097Z,55.08
2022-08-17T06:54:21.110Z,54.99
2022-08-17T06:59:54.477Z,55.28
2022-08-17T07:04:55.954Z,54.80
2022-08-17T07:10:01.905Z,55.46
2022-08-17T07:15:13.933Z,56.57
2022-08-17T07:20:20.096Z,56.97
2022-08-17T07:25:23.760Z,56.80
2022-08-17T07:30:31.864Z,57.09
2022-08-17T07:35:49.415Z,56.28
2022-08-17T07:41:02.670Z,57.36
2022-08-17T07:46:17.831Z,57.22
2022-08-17T07:51:25.514Z,57.02
2022-08-17T07:56:39.663Z,57.67
2022-08-17T08:01:47.853Z,57.37
2022-08-17T08:07:02.029Z,57.40
2022-08-17T08:12:32.720Z,57.45
2022-08-17T08:17:50.509Z,57.30
2022-08-17T08:23:03.686Z,57.01
2022-08-17T08:28:18.911Z,56.47
2022-08-17T08:33:42.881Z,57.89
2022-08-17T08:38:52.951Z,58.95
2022-08-17T08:44:07.174Z,59.43
2022-08-17T08:50:02.572Z,59.19
2022-08-17T08:55:11.298Z,58.07
2022-08-17T09:00:17.438Z,57.98
2022-08-17T09:05:33.545Z,58.39
2022-08-17T09:10:54.197Z,59.06
2022-08-17T09:16:03.645Z,58.71
2022-08-17T09:21:15.113Z,58.55
2022-08-17T09:26:28.888Z,59.21
2022-08-17T09:31:34.487Z,58.31
2022-08-17T09:37:05.098Z,58.76
2022-08-17T09:42:15.479Z,58.57
2022-08-17T09:47:27.031Z,58.56
2022-08-17T09:52:32.847Z,58.85
2022-08-17T09:57:56.108Z,58.89
2022-08-17T10:03:24.200Z,58.28
2022-08-17T10:08:40.021Z,58.84
2022-08-17T10:13:53.540Z,58.92
2022-08-17T10:19:14.772Z,59.41
2022-08-17T10:24:23.965Z,59.31
2022-08-17T10:29:48.505Z,59.32
2022-08-17T10:35:25.564Z,59.16
2022-08-17T10:40:45.355Z,59.62
2022-08-17T10:46:10.544Z,59.34
2022-08-17T10:51:38.259Z,60.13
2022-08-17T10:56:49.560Z,59.83
2022-08-17T11:02:09.975Z,60.06
2022-08-17T11:07:26.638Z,60.03
2022-08-17T11:12:46.153Z,61.50
2022-08-17T11:18:19.299Z,60.87
2022-08-17T11:23:54.359Z,61.02
2022-08-17T11:29:04.600Z,61.11
2022-08-17T11:34:18.153Z,60.88
2022-08-17T11:39:54.372Z,61.18
2022-08-17T11:45:04.269Z,60.63
2022-08-17T11:50:37.223Z,61.45
2022-08-17T11:56:05.707Z,61.90
2022-08-17T12:01:13.610Z,61.80
2022-08-17T12:06:49.195Z,62.06
2022-08-17T12:12:13.305Z,62.00
2022-08-17T12:17:40.467Z,62.18
2022-08-17T12:22:55.541Z,62.41
2022-08-17T12:28:06.825Z,62.27
2022-08-17T12:33:25.236Z,62.62
2022-08-17T12:38:33.640Z,62.94
2022-08-17T12:43:37.330Z,62.31
2022-08-17T12:48:59.842Z,61.96
2022-08-17T12:54:04.047Z,62.66
2022-08-17T12:59:07.675Z,61.27
2022-08-17T13:04:14.884Z,60.09
2022-08-17T13:09:23.433Z,61.08
2022-08-17T13:14:45.841Z,61.80
2022-08-17T13:19:51.990Z,63.23
2022-08-17T13:24:57.494Z,63.03
2022-08-17T13:30:04.735Z,64.03
2022-08-17T13:35:41.815Z,65.28
2022-08-17T13:40:51.194Z,64.10
2022-08-17T13:46:07.739Z,63.45
2022-08-17T13:51:35.738Z,64.82
2022-08-17T13:56:54.977Z,63.46
2022-08-17T14:01:58.611Z,63.19
2022-08-17T14:07:27.044Z,63.29
2022-08-17T14:12:33.898Z,63.20
2022-08-17T14:17:39.101Z,63.79
2022-08-17T14:22:48.930Z,62.59
2022-08-17T14:27:54.069Z,62.96
2022-08-17T14:33:00.884Z,62.54
2022-08-17T14:38:06.094Z,61.92
2022-08-17T14:43:09.660Z,61.47
2022-08-17T14:48:13.454Z,61.60
2022-08-17T14:53:19.501Z,61.29
2022-08-17T14:58:23.076Z,61.10
2022-08-17T15:03:26.663Z,59.85
2022-08-17T15:08:32.184Z,60.14
2022-08-17T15:13:35.917Z,59.32
2022-08-17T15:18:56.197Z,58.92
2022-08-17T15:24:01.397Z,58.51
2022-08-17T15:29:05.153Z,58.21
2022-08-17T15:34:08.781Z,56.95
2022-08-17T15:39:14.423Z,57.22
2022-08-17T15:44:23.197Z,56.79
2022-08-17T15:49:39.560Z,55.93
2022-08-17T15:54:49.538Z,52.78
2022-08-17T15:59:54.667Z,49.59
2022-08-17T16:05:10.141Z,44.84
2022-08-17T16:10:19.029Z,44.03
2022-08-17T16:15:22.769Z,43.69
2022-08-17T16:20:26.599Z,42.61
2022-08-17T16:25:52.300Z,40.83
2022-08-17T16:30:56.976Z,39.80
2022-08-17T16:36:00.671Z,39.96
2022-08-17T16:41:06.946Z,38.84
2022-08-17T16:46:10.526Z,39.03
2022-08-17T16:51:14.084Z,39.11
2022-08-17T16:56:19.347Z,37.58
2022-08-17T17:01:23.269Z,35.79
2022-08-17T17:06:38.437Z,32.96
2022-08-17T17:11:45.581Z,34.46
2022-08-17T17:16:56.572Z,36.26
2022-08-17T17:22:06.010Z,37.79
2022-08-17T17:27:22.144Z,39.29
2022-08-17T17:32:34.414Z,40.84
2022-08-17T17:37:40.961Z,41.63
2022-08-17T17:42:47.406Z,42.66
2022-08-17T17:47:51.466Z,41.82
2022-08-17T17:53:01.096Z,41.74
2022-08-17T17:58:16.411Z,43.45
2022-08-17T18:03:33.019Z,44.62
2022-08-17T18:08:55.462Z,43.99
2022-08-17T18:14:15.324Z,43.42
2022-08-17T18:19:20.228Z,42.43
2022-08-17T18:24:31.857Z,40.15
2022-08-17T18:29:43.499Z,39.15
2022-08-17T18:34:49.069Z,38.13
2022-08-17T18:39:52.765Z,37.31
2022-08-17T18:44:57.995Z,36.70
2022-08-17T18:50:21.996Z,36.85
2022-08-17T18:55:28.303Z,35.61
2022-08-17T19:00:38.490Z,35.49
2022-08-17T19:05:44.429Z,34.48
2022-08-17T19:10:49.467Z,33.99
2022-08-17T19:16:11.559Z,35.29
2022-08-17T19:21:22.349Z,35.24
2022-08-17T19:26:53.258Z,34.46
2022-08-17T19:31:56.693Z,34.84
2022-08-17T19:37:03.262Z,34.96
2022-08-17T19:42:13.615Z,34.24
2022-08-17T19:47:43.811Z,33.95
2022-08-17T19:52:55.710Z,35.36
2022-08-17T19:58:07.548Z,34.50
2022-08-17T20:03:18.681Z,34.94
2022-08-17T20:08:27.295Z,34.61
2022-08-17T20:13:37.549Z,33.93
2022-08-17T20:18:50.324Z,33.10
2022-08-17T20:24:00.366Z,32.80
2022-08-17T20:29:36.847Z,31.12
2022-08-17T20:34:47.991Z,30.29
2022-08-17T20:40:20.377Z,29.38
2022-08-17T20:45:59.218Z,29.64
2022-08-17T20:51:18.741Z,28.95
2022-08-17T20:56:54.976Z,29.54
2022-08-17T21:02:19.122Z,28.33
2022-08-17T21:07:28.128Z,28.08
2022-08-17T21:12:46.468Z,28.52
2022-08-17T21:17:57.860Z,27.00
2022-08-17T21:23:31.211Z,26.01
2022-08-17T21:29:00.474Z,26.93
2022-08-17T21:34:29.272Z,27.55
2022-08-17T21:39:41.550Z,28.71
2022-08-17T21:44:49.485Z,28.85
2022-08-17T21:49:54.020Z,28.74
2022-08-17T21:55:01.467Z,29.19
2022-08-17T22:00:08.614Z,29.23
2022-08-17T22:05:14.397Z,29.09
2022-08-17T22:10:32.965Z,29.75
2022-08-17T22:15:39.995Z,30.28
2022-08-17T22:20:44.728Z,29.80
2022-08-17T22:26:09.595Z,30.22
2022-08-17T22:31:20.807Z,30.50
2022-08-17T22:36:31.195Z,31.83
2022-08-17T22:41:52.545Z,32.69
2022-08-17T22:47:01.296Z,31.53
2022-08-17T22:52:12.683Z,31.65
2022-08-17T22:57:19.133Z,31.35
2022-08-17T23:02:25.858Z,31.97
2022-08-17T23:07:29.569Z,31.48
2022-08-17T23:12:35.176Z,32.47
2022-08-17T23:17:39.252Z,32.82
2022-08-17T23:22:52.397Z,33.28
2022-08-17T23:27:59.520Z,32.67
2022-08-17T23:33:06.756Z,32.96
2022-08-17T23:38:11.308Z,32.46
2022-08-17T23:43:25.726Z,32.29
2022-08-17T23:48:35.134Z,31.41
2022-08-17T23:53:43.744Z,32.32
2022-08-17T23:58:49.046Z,32.58
